• Join FlightAware (Why Join?)
  • Login
  • US Flag 
06:00PM EDT


 

Airport Tracker/Info


-or-


 

Live Flight TrackerFlight Track Log ✈ AWE3874 ✈ 06-Aug-2013 ✈ KPHL - KROC

Flight Track Log - Related Links

Times and Time Zones

All times are in EDT time to prevent confusion due to time zone crossing. See the AWE3874 flight status page for this flight to view local times or setup timezone preferences in your user account.

Time Position Orientation Groundspeed Altitude Reporting Facility
EDT Latitude Longitude Course Direction KTS MPH feet Rate Location/Type
01:52PM 39.8833 -75.2167 67° East 169 194 700  Level Philadelphia TRACON
01:52PM 39.9000 -75.1667 67° East 192 221 2,200 2,220 Climbing Philadelphia TRACON
01:53PM 39.9500 -75.1167 37° Northeast 248 285 4,800 2,400 Climbing Philadelphia TRACON
01:55PM 40.0167 -75.1667 330° Northwest 289 333 7,300 2,460 Climbing Philadelphia TRACON
01:56PM 40.0667 -75.2500 308° West 276 318 10,000 1,740 Climbing Philadelphia TRACON
01:58PM 40.1644 -75.4536 302° West 310 357 13,100 1,080 Climbing New York Center
01:59PM 40.2225 -75.5608 305° West 329 379 13,700 1,320 Climbing New York Center
02:00PM 40.2856 -75.6550 311° West 350 403 15,800 1,140 Climbing New York Center
02:01PM 40.3442 -75.7436 311° West 360 414 16,100 60 Climbing New York Center
02:02PM 40.4086 -75.8464 309° West 360 414 16,000  Descending New York Center
02:03PM 40.4575 -75.9728 297° West 360 414 16,100  Climbing New York Center
02:04PM 40.5394 -76.0472 325° Northwest 351 404 16,000 -60 Descending New York Center
02:05PM 40.6328 -76.1036 335° Northwest 351 404 16,000  Level New York Center
02:06PM 40.7181 -76.1542 336° Northwest 366 421 16,000  Level New York Center
02:07PM 40.8214 -76.2169 335° Northwest 372 428 16,100  Climbing New York Center
02:08PM 40.9128 -76.2739 335° Northwest 372 428 16,100 -60 Level New York Center
02:09PM 41.0058 -76.3308 335° Northwest 372 428 16,000 -60 Descending New York Center
02:10PM 41.0911 -76.3792 337° Northwest 372 428 16,000  Level New York Center
02:11PM 41.1822 -76.4361 335° Northwest 372 428 16,000  Level New York Center
02:12PM 41.2833 -76.5000 335° Northwest 372 428 16,000  Level New York Center
02:13PM 41.3742 -76.5575 335° Northwest 372 428 16,000  Level New York Center
02:14PM 41.4672 -76.6153 335° Northwest 372 428 16,000  Level New York Center
02:15PM 41.5497 -76.6697 334° Northwest 372 428 16,000  Level New York Center
02:16PM 41.6508 -76.7314 336° Northwest 372 428 16,000  Level New York Center
02:17PM 41.7439 -76.7897 335° Northwest 372 428 16,000  Level New York Center
02:19PM 41.9197 -76.8992 335° Northwest 370 426 16,000  Level Cleveland Center
02:20PM 42.0111 -76.9583 334° Northwest 370 426 16,000  Level Cleveland Center
02:21PM 42.1047 -77.0175 335° Northwest 370 426 16,000  Level Cleveland Center
02:22PM 42.1983 -77.0767 335° Northwest 370 426 16,000  Level Cleveland Center
02:23PM 42.2919 -77.1361 335° Northwest 370 426 16,000 -60 Level Cleveland Center
02:23PM 42.3600 -77.1828 333° Northwest 367 422 15,900 -720 Descending Cleveland Center
02:24PM 42.4111 -77.2167 334° Northwest 366 421 15,100 -1,260 Descending Cleveland Center
02:25PM 42.4747 -77.2528 337° Northwest 370 426 14,200 -1,560 Descending Cleveland Center
02:26PM 42.5617 -77.3103 334° Northwest 365 420 12,400 -1,920 Descending Cleveland Center
02:27PM 42.6467 -77.3650 335° Northwest 351 404 10,400 -1,560 Descending Cleveland Center
02:28PM 42.7244 -77.3894 347° North 321 369 9,300 -1,380 Descending Cleveland Center
02:29PM 42.8000 -77.4081 350° North 288 331 7,700 -1,560 Descending Cleveland Center
02:30PM 42.8756 -77.4269 350° North 276 318 6,200 -1,620 Descending Cleveland Center
02:31PM 42.9492 -77.4517 346° North 271 312 4,500 -1,680 Descending Cleveland Center
02:32PM 43.0228 -77.4706 349° North 266 306 2,900 -1,020 Descending Cleveland Center
02:33PM 43.0819 -77.5019 339° North 251 289 2,500 -540 Descending Cleveland Center
02:34PM 43.1256 -77.5764 309° West 171 197 1,800 -720 Descending Cleveland Center
02:35PM 43.1231 -77.6392 267° West 144 166 900 -840 Descending Cleveland Center
02:37PM 43.1167 -77.6667 279° West  Level FlightAware Approximate
02:44PM 43.1191 -77.6719 279° West  Level Estimated